Accueil
METAR-TAF:

METAR-TAF

Aéroports :

Lawrenceville-Vincennes International Airport

Lawrenceville, Illinois, États-Unis

latitude: 38-45-38N, longitude: 087-35-56W, altitude: 131 m

Observation

Le bulletin a été fait il y a 19 minutes, à 21:53 UTC
Vent 9 kt de est
Température 10°C
Humidité 66%
Pression 1022 hPa
Visibilité: 16.1 km
Ciel clair

METAR: KLWV 202153Z AUTO 10009KT 10SM CLR 10/04 A3018 RMK AO2 SLP222 T01000044 $

Heure: 16:12 (22:12 UTC)


TAF: absent

Observations et prévisions météorologiques de plus de 4000 aéroports (messages METAR et TAF).

Les stations disponibles sont représentées par des disques jaunes et rouges sur la carte.

Passer la souris dessus pour voir le nom de la station.

Cliquer dessus pour voir les observations et prévisions météorologiques.

Pour changer de carte: cliquez sur les boutons verts avec une croix noire pour zoomer, sur le bouton vert avec un tiret pour effectuer un zoom arrière, ou sur les flèches vertes pour les cartes adjacentes.


METAR-TAF: